DAL1170 KATL-KAUS
Flight info
| Callsign | DAL1170 |
|---|---|
| Flight time | N/A |
| Altitude | 34000 |
| Route | POUNC2 GRGIA GARTS LCH WEEED WLEEE7 |
| Aircraft | A321/M-SDE3FGHIRWY/LB1 |
Departure
| Time | 2026-05-08 00:02 |
|---|---|
| Airport | Hartsfield Jackson Atlanta International Airport (KATL) |
Arrival
| Time | N/A |
|---|---|
| Airport | Austin Bergstrom International Airport (KAUS) |
| Time | Latitude | Longitude | Altitude | Speed | Heading |
|---|---|---|---|---|---|
| 2026-05-07 23:41 | 33.63883 | -84.43868 | 1007 ft | 0 kts | 269° |
| 2026-05-07 23:49 | 33.63883 | -84.43863 | 1006 ft | 3 kts | 269° |
| 2026-05-07 23:50 | 33.63883 | -84.43830 | 1006 ft | 4 kts | 275° |
| 2026-05-07 23:50 | 33.63877 | -84.43801 | 1006 ft | 4 kts | 310° |
| 2026-05-07 23:50 | 33.63858 | -84.43787 | 1006 ft | 2 kts | 359° |
| 2026-05-07 23:50 | 33.63852 | -84.43787 | 1006 ft | 0 kts | 0° |
| 2026-05-07 23:52 | 33.63853 | -84.43787 | 1006 ft | 2 kts | 0° |
| 2026-05-07 23:52 | 33.63905 | -84.43787 | 1006 ft | 12 kts | 0° |
| 2026-05-07 23:53 | 33.63983 | -84.43786 | 1006 ft | 11 kts | 0° |
| 2026-05-07 23:53 | 33.64053 | -84.43786 | 1006 ft | 9 kts | 0° |
| 2026-05-07 23:53 | 33.64115 | -84.43786 | 1006 ft | 8 kts | 0° |
| 2026-05-07 23:53 | 33.64168 | -84.43786 | 1006 ft | 7 kts | 0° |
| 2026-05-07 23:54 | 33.64212 | -84.43786 | 1006 ft | 6 kts | 359° |
| 2026-05-07 23:54 | 33.64252 | -84.43786 | 1006 ft | 8 kts | 359° |
| 2026-05-07 23:54 | 33.64338 | -84.43787 | 1006 ft | 8 kts | 359° |
| 2026-05-07 23:54 | 33.64339 | -84.43787 | 1006 ft | 0 kts | 359° |
| 2026-05-07 23:55 | 33.64371 | -84.43787 | 1006 ft | 9 kts | 359° |
| 2026-05-07 23:55 | 33.64451 | -84.43775 | 1006 ft | 12 kts | 11° |
| 2026-05-07 23:55 | 33.64480 | -84.43726 | 1006 ft | 5 kts | 124° |
| 2026-05-07 23:55 | 33.64460 | -84.43660 | 1006 ft | 13 kts | 94° |
| 2026-05-07 23:56 | 33.64461 | -84.43515 | 1006 ft | 20 kts | 91° |
| 2026-05-07 23:56 | 33.64460 | -84.43406 | 1006 ft | 19 kts | 90° |
| 2026-05-07 23:56 | 33.64460 | -84.43258 | 1007 ft | 17 kts | 90° |
| 2026-05-07 23:56 | 33.64460 | -84.43120 | 1007 ft | 16 kts | 90° |
| 2026-05-07 23:57 | 33.64460 | -84.42995 | 1006 ft | 14 kts | 90° |
| 2026-05-07 23:57 | 33.64460 | -84.42873 | 1006 ft | 17 kts | 90° |
| 2026-05-07 23:57 | 33.64460 | -84.42699 | 1006 ft | 25 kts | 89° |
| 2026-05-07 23:57 | 33.64465 | -84.42492 | 1006 ft | 24 kts | 88° |
| 2026-05-07 23:58 | 33.64470 | -84.42296 | 1006 ft | 23 kts | 88° |
| 2026-05-07 23:58 | 33.64530 | -84.42132 | 1006 ft | 21 kts | 65° |
| 2026-05-07 23:58 | 33.64541 | -84.41966 | 1006 ft | 19 kts | 91° |
| 2026-05-07 23:58 | 33.64542 | -84.41811 | 1005 ft | 18 kts | 87° |
| 2026-05-07 23:59 | 33.64542 | -84.41670 | 1007 ft | 18 kts | 90° |
| 2026-05-07 23:59 | 33.64542 | -84.41473 | 1007 ft | 27 kts | 90° |
| 2026-05-07 23:59 | 33.64543 | -84.41256 | 1007 ft | 25 kts | 90° |
| 2026-05-07 23:59 | 33.64543 | -84.41052 | 1006 ft | 24 kts | 90° |
| 2026-05-08 00:00 | 33.64544 | -84.40858 | 1006 ft | 23 kts | 89° |
| 2026-05-08 00:00 | 33.64570 | -84.40681 | 1005 ft | 21 kts | 90° |
| 2026-05-08 00:00 | 33.64597 | -84.40570 | 1005 ft | 11 kts | 32° |
| 2026-05-08 00:00 | 33.64669 | -84.40579 | 1004 ft | 10 kts | 319° |
| 2026-05-08 00:01 | 33.64679 | -84.40659 | 1004 ft | 12 kts | 269° |
| 2026-05-08 00:01 | 33.64679 | -84.40974 | 1007 ft | 72 kts | 270° |
| 2026-05-08 00:01 | 33.64681 | -84.41832 | 1008 ft | 131 kts | 270° |
| 2026-05-08 00:01 | 33.64686 | -84.43115 | 1031 ft | 173 kts | 271° |
| 2026-05-08 00:02 | 33.64692 | -84.44575 | 1612 ft | 173 kts | 272° |
| 2026-05-08 00:02 | 33.64720 | -84.46019 | 2258 ft | 175 kts | 279° |
| 2026-05-08 00:02 | 33.64988 | -84.47444 | 2849 ft | 173 kts | 285° |
| 2026-05-08 00:02 | 33.65270 | -84.48868 | 3204 ft | 180 kts | 283° |
| 2026-05-08 00:03 | 33.65557 | -84.50392 | 3341 ft | 195 kts | 282° |
| 2026-05-08 00:03 | 33.65864 | -84.52064 | 3458 ft | 215 kts | 282° |
| 2026-05-08 00:03 | 33.66202 | -84.53920 | 3627 ft | 239 kts | 282° |
| 2026-05-08 00:03 | 33.66564 | -84.55912 | 4233 ft | 247 kts | 281° |
| 2026-05-08 00:04 | 33.66932 | -84.57936 | 4937 ft | 250 kts | 282° |
| 2026-05-08 00:04 | 33.67297 | -84.59978 | 5713 ft | 251 kts | 281° |
| 2026-05-08 00:04 | 33.67649 | -84.62031 | 6442 ft | 252 kts | 281° |
| 2026-05-08 00:04 | 33.67999 | -84.64103 | 7132 ft | 255 kts | 281° |
| 2026-05-08 00:05 | 33.68346 | -84.66196 | 7810 ft | 257 kts | 281° |
| 2026-05-08 00:05 | 33.68697 | -84.68311 | 8470 ft | 259 kts | 281° |
| 2026-05-08 00:05 | 33.69054 | -84.70437 | 9115 ft | 261 kts | 281° |
| 2026-05-08 00:05 | 33.69413 | -84.72577 | 9726 ft | 262 kts | 280° |
| 2026-05-08 00:06 | 33.69577 | -84.74743 | 10371 ft | 262 kts | 266° |
| 2026-05-08 00:06 | 33.69181 | -84.76872 | 11064 ft | 263 kts | 251° |
| 2026-05-08 00:06 | 33.68247 | -84.78845 | 11305 ft | 285 kts | 238° |
| 2026-05-08 00:06 | 33.67028 | -84.80815 | 11439 ft | 304 kts | 238° |
| 2026-05-08 00:07 | 33.65725 | -84.82911 | 11562 ft | 322 kts | 238° |
| 2026-05-08 00:07 | 33.64353 | -84.85116 | 11751 ft | 336 kts | 237° |
| 2026-05-08 00:07 | 33.62941 | -84.87378 | 12242 ft | 341 kts | 238° |
| 2026-05-08 00:07 | 33.61515 | -84.89659 | 12860 ft | 342 kts | 238° |
| 2026-05-08 00:08 | 33.60086 | -84.91948 | 13501 ft | 342 kts | 238° |
| 2026-05-08 00:08 | 33.58660 | -84.94230 | 14131 ft | 342 kts | 238° |
| 2026-05-08 00:08 | 33.57236 | -84.96516 | 14720 ft | 342 kts | 238° |
| 2026-05-08 00:08 | 33.55815 | -84.98798 | 15291 ft | 342 kts | 238° |
| 2026-05-08 00:09 | 33.54394 | -85.01093 | 15852 ft | 343 kts | 239° |
| 2026-05-08 00:09 | 33.52972 | -85.03386 | 16409 ft | 343 kts | 239° |
| 2026-05-08 00:09 | 33.51545 | -85.05680 | 16963 ft | 343 kts | 239° |
| 2026-05-08 00:09 | 33.50120 | -85.07969 | 17498 ft | 343 kts | 239° |
| 2026-05-08 00:10 | 33.48692 | -85.10263 | 18019 ft | 343 kts | 239° |
| 2026-05-08 00:10 | 33.47265 | -85.12551 | 18520 ft | 343 kts | 239° |
| 2026-05-08 00:10 | 33.45831 | -85.14848 | 18949 ft | 345 kts | 239° |
| 2026-05-08 00:10 | 33.44386 | -85.17157 | 19349 ft | 348 kts | 239° |
| 2026-05-08 00:11 | 33.42942 | -85.19489 | 19734 ft | 348 kts | 241° |
| 2026-05-08 00:11 | 33.41789 | -85.22016 | 20101 ft | 345 kts | 251° |
| 2026-05-08 00:11 | 33.41047 | -85.24747 | 20473 ft | 346 kts | 256° |
| 2026-05-08 00:11 | 33.40373 | -85.27518 | 20853 ft | 348 kts | 256° |
| 2026-05-08 00:12 | 33.39691 | -85.30301 | 21207 ft | 350 kts | 256° |
| 2026-05-08 00:12 | 33.39001 | -85.33101 | 21571 ft | 352 kts | 256° |
| 2026-05-08 00:12 | 33.38304 | -85.35912 | 21935 ft | 353 kts | 256° |
| 2026-05-08 00:12 | 33.37602 | -85.38739 | 22279 ft | 355 kts | 256° |
| 2026-05-08 00:13 | 33.36897 | -85.41577 | 22597 ft | 357 kts | 256° |
| 2026-05-08 00:13 | 33.36188 | -85.44431 | 22899 ft | 359 kts | 256° |
| 2026-05-08 00:13 | 33.35476 | -85.47303 | 23215 ft | 361 kts | 256° |
| 2026-05-08 00:13 | 33.34761 | -85.50182 | 23515 ft | 362 kts | 255° |
| 2026-05-08 00:14 | 33.34040 | -85.53080 | 23811 ft | 364 kts | 255° |
| 2026-05-08 00:14 | 33.33314 | -85.55994 | 24063 ft | 367 kts | 256° |
| 2026-05-08 00:14 | 33.32579 | -85.58938 | 24199 ft | 372 kts | 256° |
| 2026-05-08 00:14 | 33.31833 | -85.61919 | 24438 ft | 375 kts | 256° |
| 2026-05-08 00:15 | 33.31083 | -85.64912 | 24704 ft | 377 kts | 256° |
| 2026-05-08 00:15 | 33.30341 | -85.67880 | 24978 ft | 378 kts | 256° |
| 2026-05-08 00:15 | 33.29588 | -85.70897 | 25264 ft | 379 kts | 256° |
| 2026-05-08 00:15 | 33.28833 | -85.73921 | 25556 ft | 380 kts | 256° |
| 2026-05-08 00:16 | 33.28073 | -85.76950 | 25835 ft | 381 kts | 256° |
| 2026-05-08 00:16 | 33.27306 | -85.79990 | 26095 ft | 383 kts | 256° |
| 2026-05-08 00:16 | 33.26535 | -85.83041 | 26375 ft | 384 kts | 255° |
| 2026-05-08 00:16 | 33.25766 | -85.86098 | 26658 ft | 385 kts | 255° |
| 2026-05-08 00:17 | 33.24992 | -85.89165 | 26943 ft | 385 kts | 256° |
| 2026-05-08 00:17 | 33.24215 | -85.92235 | 27209 ft | 387 kts | 255° |
| 2026-05-08 00:17 | 33.23434 | -85.95319 | 27456 ft | 388 kts | 255° |
| 2026-05-08 00:17 | 33.22653 | -85.98400 | 27749 ft | 388 kts | 255° |
| 2026-05-08 00:18 | 33.21874 | -86.01471 | 28114 ft | 385 kts | 255° |
| 2026-05-08 00:18 | 33.21099 | -86.04527 | 28472 ft | 383 kts | 255° |
| 2026-05-08 00:18 | 33.20330 | -86.07563 | 28782 ft | 382 kts | 255° |
| 2026-05-08 00:18 | 33.19563 | -86.10593 | 29086 ft | 380 kts | 255° |
| 2026-05-08 00:19 | 33.18796 | -86.13610 | 29398 ft | 379 kts | 255° |
| 2026-05-08 00:19 | 33.18029 | -86.16613 | 29734 ft | 378 kts | 255° |